»·PEaware :: SWA1952 KPHX-KSNA

SWA1952 :: KPHX-KSNA

FLIGHT INFORMATION

Flight Status: Arrived
Operator:
Southwest Airlines
More flights by this operator :: More flights under this callsign
Pilot: Luis Carlos C. (28559)
Aircraft: BOEING 737-700
(B737)
More flights by this aircraft type
Origin: KPHX Phoenix Sky Harbor Intl
United States
Destination: KSNA John Wayne-Orange Co
United States
More flights between these airports :: More routes between these airports
Route: +KEENS2 HRRBR EMLLD DSNEE4
File this flight plan on PilotEdge
Remarks:
Altitude:
(Current/Filed)
34,000ft
Speed:
(Current/Filed)
450kts
Departed: 27-Apr-20 03:20 PM
Arrived: 27-Apr-20 04:17 PM
Distance/Time
Traveled:
293nm/0:57
Distance/Time
To Go:
Arrived

Flight Plot

Page will automatically refresh every two minutes.

Flight plan parsing failed; only flown route is shown


Map Options




Map Legend


Flown Route
Filed Route
Departure Airport
Arrival Airport
Navaid (VOR, NDB)
Fix

Horizontal Profiles

Position Reports

Time Latitude Longitude Heading Altitude Ground
Speed
27-Apr-20 14:45 33.436850 -112.009417 90 1142ft 0kts
27-Apr-20 14:46 33.436850 -112.009417 90 1142ft 0kts
27-Apr-20 14:47 33.436850 -112.009417 90 1142ft 0kts
27-Apr-20 14:48 33.436850 -112.009417 90 1142ft 0kts
27-Apr-20 14:49 33.436850 -112.009417 90 1142ft 0kts
27-Apr-20 14:50 33.436850 -112.009417 90 1142ft 0kts
27-Apr-20 14:51 33.436850 -112.009417 90 1142ft 0kts
27-Apr-20 14:52 33.436850 -112.009417 90 1142ft 0kts
27-Apr-20 14:53 33.436850 -112.009417 90 1142ft 0kts
27-Apr-20 14:54 33.436850 -112.009417 90 1142ft 0kts
27-Apr-20 14:55 33.436850 -112.009417 90 1142ft 0kts
27-Apr-20 14:56 33.436850 -112.009417 90 1143ft 0kts
27-Apr-20 14:57 33.436850 -112.009417 90 1143ft 0kts
27-Apr-20 14:58 33.436850 -112.009417 90 1143ft 0kts
27-Apr-20 14:59 33.436850 -112.009417 90 1143ft 0kts
27-Apr-20 15:00 33.436850 -112.009417 90 1143ft 0kts
27-Apr-20 15:01 33.436850 -112.009417 90 1143ft 0kts
27-Apr-20 15:02 33.436850 -112.009417 90 1143ft 0kts
27-Apr-20 15:03 33.436850 -112.009417 90 1143ft 0kts
27-Apr-20 15:04 33.436850 -112.009417 90 1143ft 0kts
27-Apr-20 15:05 33.436850 -112.009495 93 1143ft 2kts
27-Apr-20 15:06 33.437330 -112.010104 183 1143ft 2kts
27-Apr-20 15:07 33.437694 -112.009995 0 1143ft 2kts
27-Apr-20 15:08 33.437694 -112.009995 0 1143ft 1kts
27-Apr-20 15:09 33.437694 -112.009995 0 1143ft 0kts
27-Apr-20 15:10 33.437694 -112.009995 0 1143ft 0kts
27-Apr-20 15:11 33.437694 -112.009995 0 1143ft 0kts
27-Apr-20 15:12 33.437694 -112.009995 0 1143ft 0kts
27-Apr-20 15:13 33.438952 -112.009789 80 1143ft 8kts
27-Apr-20 15:14 33.439016 -112.003831 89 1143ft 20kts
27-Apr-20 15:15 33.438989 -111.998901 89 1143ft 16kts
27-Apr-20 15:16 33.438995 -111.993068 89 1143ft 17kts
27-Apr-20 15:18 33.439798 -111.992385 0 1143ft 0kts
27-Apr-20 15:19 33.439799 -111.992385 0 1143ft 0kts
27-Apr-20 15:20 33.440834 -112.001522 270 1143ft 115kts
27-Apr-20 15:21 33.436658 -112.057536 260 2743ft 188kts
27-Apr-20 15:22 33.417873 -112.119823 246 4613ft 240kts
27-Apr-20 15:23 33.393188 -112.205373 269 7546ft 287kts
27-Apr-20 15:24 33.406114 -112.301862 280 11182ft 309kts
27-Apr-20 15:25 33.423056 -112.415238 280 13449ft 366kts
27-Apr-20 15:26 33.440974 -112.538019 280 16503ft 383kts
27-Apr-20 15:27 33.451448 -112.666872 271 19278ft 399kts
27-Apr-20 15:28 33.454313 -112.801937 277 21877ft 410kts
27-Apr-20 15:29 33.478169 -112.937416 283 24141ft 421kts
27-Apr-20 15:30 33.503993 -113.076066 283 26118ft 434kts
27-Apr-20 15:31 33.531026 -113.219231 283 27937ft 445kts
27-Apr-20 15:32 33.557907 -113.366160 283 29511ft 456kts
27-Apr-20 15:33 33.584883 -113.514869 283 31429ft 453kts
27-Apr-20 15:33 33.607889 -113.636793 283 33076ft 448kts
27-Apr-20 15:34 33.634844 -113.783074 283 33937ft 448kts
27-Apr-20 15:36 33.681101 -113.946079 296 33946ft 444kts
27-Apr-20 15:37 33.733051 -114.080917 295 33941ft 444kts
27-Apr-20 15:37 33.764127 -114.198474 280 33945ft 445kts
27-Apr-20 15:38 33.781262 -114.345973 279 33948ft 445kts
27-Apr-20 15:39 33.798082 -114.493441 279 33941ft 445kts
27-Apr-20 15:40 33.815581 -114.640702 279 33949ft 444kts
27-Apr-20 15:41 33.832104 -114.787964 279 33952ft 444kts
27-Apr-20 15:42 33.848488 -114.935209 279 33949ft 443kts
27-Apr-20 15:43 33.864662 -115.082138 278 33941ft 442kts
27-Apr-20 15:44 33.880591 -115.228614 278 33939ft 442kts
27-Apr-20 15:45 33.897152 -115.375281 278 33927ft 442kts
27-Apr-20 15:46 33.912744 -115.521789 278 33919ft 441kts
27-Apr-20 15:47 33.928059 -115.668500 277 33914ft 441kts
27-Apr-20 15:48 33.937948 -115.815625 276 33909ft 441kts
27-Apr-20 15:49 33.948543 -115.962223 275 31463ft 442kts
27-Apr-20 15:50 33.958392 -116.107922 275 28968ft 430kts
27-Apr-20 15:51 33.959644 -116.249473 262 26507ft 418kts
27-Apr-20 15:52 33.946286 -116.352175 261 24992ft 402kts
27-Apr-20 15:53 33.930065 -116.483834 261 22737ft 392kts
27-Apr-20 15:54 33.913850 -116.612427 260 20499ft 383kts
27-Apr-20 15:55 33.897603 -116.737280 260 18348ft 373kts
27-Apr-20 15:56 33.883952 -116.859198 262 16217ft 362kts
27-Apr-20 15:57 33.870878 -116.977930 261 14031ft 353kts
27-Apr-20 15:58 33.858445 -117.091694 261 12536ft 349kts
27-Apr-20 15:59 33.845896 -117.204797 261 11057ft 332kts
27-Apr-20 16:00 33.834007 -117.309078 260 9811ft 304kts
27-Apr-20 16:01 33.822745 -117.407420 260 8246ft 292kts
27-Apr-20 16:02 33.809769 -117.476431 248 7895ft 256kts
27-Apr-20 16:03 33.793286 -117.548295 270 7846ft 255kts
27-Apr-20 16:04 33.801294 -117.625925 281 6924ft 228kts
27-Apr-20 16:05 33.810016 -117.673511 281 6100ft 216kts
27-Apr-20 16:06 33.822690 -117.744058 281 5892ft 217kts
27-Apr-20 16:07 33.835210 -117.813999 281 5895ft 218kts
27-Apr-20 16:08 33.875915 -117.847326 25 5320ft 208kts
27-Apr-20 16:09 33.896995 -117.793720 109 4219ft 202kts
27-Apr-20 16:10 33.857762 -117.751603 161 3914ft 206kts
27-Apr-20 16:11 33.807304 -117.756469 235 3842ft 187kts
27-Apr-20 16:12 33.780206 -117.803253 216 3792ft 156kts
27-Apr-20 16:13 33.742062 -117.825218 206 2495ft 142kts
27-Apr-20 16:14 33.709384 -117.847443 207 1116ft 135kts
27-Apr-20 16:15 33.678622 -117.866989 209 73ft 118kts
27-Apr-20 16:16 33.672679 -117.872199 359 64ft 5kts
27-Apr-20 16:17 33.674358 -117.871991 208 64ft 0kts
27-Apr-20 16:18 33.674358 -117.871991 208 64ft 0kts
27-Apr-20 16:19 33.674358 -117.871991 208 64ft 0kts
27-Apr-20 16:20 33.674358 -117.871991 208 64ft 0kts

Navigation Log

Ident Type
Flight plan parsing failed, navigation log unavailable